createdAt,value
2019-05-18T00:03:31.692Z,101694.00
2019-05-18T00:07:33.843Z,101693.53
2019-05-18T00:11:35.997Z,101695.58
2019-05-18T00:15:38.137Z,101694.67
2019-05-18T00:19:41.253Z,101703.41
2019-05-18T00:23:43.622Z,101705.36
2019-05-18T00:27:45.741Z,101710.58
2019-05-18T00:31:47.901Z,101710.74
2019-05-18T00:35:50.936Z,101707.54
2019-05-18T00:39:53.038Z,101707.70
2019-05-18T00:43:55.062Z,101704.34
2019-05-18T00:47:57.201Z,101706.06
2019-05-18T00:51:59.291Z,101704.73
2019-05-18T00:56:01.351Z,101705.58
2019-05-18T01:00:03.461Z,101708.53
2019-05-18T01:04:05.729Z,101708.44
2019-05-18T01:08:07.911Z,101707.83
2019-05-18T01:12:10.084Z,101704.31
2019-05-18T01:16:12.178Z,101704.62
2019-05-18T01:20:14.528Z,101704.76
2019-05-18T01:24:16.827Z,101714.49
2019-05-18T01:28:18.890Z,101710.67
2019-05-18T01:32:21.032Z,101705.83
2019-05-18T01:36:23.248Z,101702.78
2019-05-18T01:40:25.463Z,101701.91
2019-05-18T01:44:27.675Z,101696.40
2019-05-18T01:48:29.816Z,101698.89
2019-05-18T01:52:32.052Z,101697.63
2019-05-18T01:56:34.279Z,101693.44
2019-05-18T02:00:36.423Z,101692.32
2019-05-18T02:04:38.541Z,101695.06
2019-05-18T02:08:40.661Z,101687.73
2019-05-18T02:12:42.802Z,101690.79
2019-05-18T02:16:45.153Z,101684.06
2019-05-18T02:20:47.137Z,101683.20
2019-05-18T02:24:49.573Z,101682.59
2019-05-18T02:28:52.021Z,101683.82
2019-05-18T02:32:54.241Z,101674.95
2019-05-18T02:36:56.617Z,101674.34
2019-05-18T02:40:58.816Z,101662.11
2019-05-18T02:45:01.590Z,101659.39
2019-05-18T02:49:04.029Z,101658.70
2019-05-18T02:53:07.371Z,101661.65
2019-05-18T02:57:09.607Z,101657.03
2019-05-18T03:01:11.699Z,101657.78
2019-05-18T03:05:14.516Z,101670.27
2019-05-18T03:09:17.699Z,101669.46
2019-05-18T03:13:19.741Z,101676.75
2019-05-18T03:17:21.849Z,101668.42
2019-05-18T03:21:23.896Z,101674.53
2019-05-18T03:25:26.353Z,101669.67
2019-05-18T03:29:28.450Z,101662.88
2019-05-18T03:33:30.883Z,101659.02
2019-05-18T03:37:33.118Z,101655.34
2019-05-18T03:41:35.561Z,101663.11
2019-05-18T03:45:37.730Z,101658.72
2019-05-18T03:49:40.619Z,101659.50
2019-05-18T03:53:42.863Z,101654.92
2019-05-18T03:57:44.975Z,101654.24
2019-05-18T04:01:47.135Z,101652.05
2019-05-18T04:05:49.143Z,101648.36
2019-05-18T04:09:51.183Z,101644.98
2019-05-18T04:13:53.215Z,101640.44
2019-05-18T04:17:55.482Z,101642.80
2019-05-18T04:21:58.570Z,101631.36
2019-05-18T04:26:01.233Z,101635.78
2019-05-18T04:30:03.381Z,101632.45
2019-05-18T04:34:05.588Z,101625.04
2019-05-18T04:38:08.198Z,101619.73
2019-05-18T04:42:10.177Z,101614.55
2019-05-18T04:46:12.392Z,101615.81
2019-05-18T04:50:15.183Z,101621.57
2019-05-18T04:54:17.309Z,101624.36
2019-05-18T04:58:19.304Z,101621.44
2019-05-18T05:02:21.574Z,101625.39
2019-05-18T05:06:23.719Z,101627.95
2019-05-18T05:10:25.864Z,101625.64
2019-05-18T05:14:27.884Z,101630.63
2019-05-18T05:18:30.145Z,101630.45
2019-05-18T05:22:32.752Z,101626.77
2019-05-18T05:26:34.997Z,101632.89
2019-05-18T05:30:38.845Z,101626.66
2019-05-18T05:34:40.864Z,101617.91
2019-05-18T05:38:43.479Z,101618.47
2019-05-18T05:42:45.263Z,101617.59
2019-05-18T05:46:47.002Z,101621.18
2019-05-18T05:50:48.791Z,101623.27
2019-05-18T05:54:50.614Z,101618.67
2019-05-18T05:58:52.501Z,101616.00
2019-05-18T06:02:54.533Z,101623.04
2019-05-18T06:06:59.522Z,101621.80
2019-05-18T06:11:01.552Z,101622.03
2019-05-18T06:15:03.738Z,101617.70
2019-05-18T06:19:05.780Z,101614.20
2019-05-18T06:23:07.974Z,101618.27
2019-05-18T06:27:09.986Z,101619.65
2019-05-18T06:31:12.003Z,101623.88
2019-05-18T06:35:14.561Z,101620.84
2019-05-18T06:39:16.633Z,101613.70
2019-05-18T06:43:18.695Z,101612.52
2019-05-18T06:47:20.811Z,101615.75
2019-05-18T06:51:22.834Z,101608.62
2019-05-18T06:55:25.812Z,101604.31
2019-05-18T06:59:29.114Z,101607.93
2019-05-18T07:03:31.407Z,101605.45
2019-05-18T07:07:33.504Z,101606.31
2019-05-18T07:11:35.717Z,101602.03
2019-05-18T07:15:37.840Z,101609.01
2019-05-18T07:19:39.983Z,101604.50
2019-05-18T07:23:43.865Z,101607.25
2019-05-18T07:27:46.990Z,101602.27
2019-05-18T07:31:49.120Z,101608.38
2019-05-18T07:35:51.361Z,101606.37
2019-05-18T07:39:53.505Z,101602.92
2019-05-18T07:43:55.582Z,101604.75
2019-05-18T07:47:57.652Z,101605.44
2019-05-18T07:51:59.654Z,101601.58
2019-05-18T07:56:01.818Z,101598.41
2019-05-18T08:00:04.427Z,101603.05
2019-05-18T08:04:07.518Z,101600.05
2019-05-18T08:08:09.710Z,101600.19
2019-05-18T08:12:11.737Z,101602.95
2019-05-18T08:16:15.536Z,101591.40
2019-05-18T08:20:17.736Z,101589.21
2019-05-18T08:24:19.946Z,101580.53
2019-05-18T08:28:22.114Z,101576.05
2019-05-18T08:32:24.199Z,101582.14
2019-05-18T08:36:26.966Z,101572.89
2019-05-18T08:40:29.284Z,101577.02
2019-05-18T08:44:32.858Z,101564.62
2019-05-18T08:48:35.278Z,101566.58
2019-05-18T08:52:37.638Z,101568.55
2019-05-18T08:56:39.771Z,101566.14
2019-05-18T09:00:41.885Z,101564.00
2019-05-18T09:04:45.250Z,101562.25
2019-05-18T09:08:47.270Z,101560.41
2019-05-18T09:12:49.362Z,101561.91
2019-05-18T09:16:51.443Z,101562.70
2019-05-18T09:20:53.683Z,101557.91
2019-05-18T09:24:55.773Z,101551.84
2019-05-18T09:28:57.901Z,101558.84
2019-05-18T09:33:00.154Z,101549.81
2019-05-18T09:37:02.310Z,101546.09
2019-05-18T09:41:04.601Z,101554.47
2019-05-18T09:45:07.998Z,101548.11
2019-05-18T09:49:10.198Z,101551.06
2019-05-18T09:53:12.478Z,101547.42
2019-05-18T09:57:14.841Z,101549.22
2019-05-18T10:01:17.006Z,101547.88
2019-05-18T10:05:19.218Z,101549.73
2019-05-18T10:09:21.360Z,101545.20
2019-05-18T10:13:23.475Z,101535.05
2019-05-18T10:17:25.595Z,101535.05
2019-05-18T10:21:28.773Z,101525.95
2019-05-18T10:25:31.039Z,101529.66
2019-05-18T10:29:33.122Z,101529.66
2019-05-18T10:33:35.229Z,101516.52
2019-05-18T10:37:37.343Z,101515.48
2019-05-18T10:41:40.696Z,101516.73
2019-05-18T10:45:45.083Z,101511.23
2019-05-18T10:49:46.703Z,101511.23
2019-05-18T10:53:48.909Z,101514.00
2019-05-18T10:57:51.265Z,101508.66
2019-05-18T11:01:53.459Z,101508.66
2019-05-18T11:05:57.464Z,101505.15
2019-05-18T11:09:59.716Z,101491.19
2019-05-18T11:14:02.588Z,101491.19
2019-05-18T11:18:05.518Z,101490.92
2019-05-18T11:22:07.484Z,101487.06
2019-05-18T11:26:09.690Z,101491.92
2019-05-18T11:30:12.304Z,101489.83
2019-05-18T11:34:14.101Z,101484.66
2019-05-18T11:38:18.714Z,101477.83
2019-05-18T11:42:26.660Z,101473.66
2019-05-18T11:46:29.008Z,101460.73
2019-05-18T11:50:33.102Z,101467.75
2019-05-18T11:54:36.646Z,101447.55
2019-05-18T11:58:41.753Z,101447.55
2019-05-18T12:02:44.998Z,101455.03
2019-05-18T12:06:49.065Z,101457.13
2019-05-18T12:10:52.286Z,101453.11
2019-05-18T12:14:54.317Z,101452.09
2019-05-18T12:18:57.639Z,101440.97
2019-05-18T12:23:02.296Z,101443.05
2019-05-18T12:27:04.601Z,101444.38
2019-05-18T12:31:06.733Z,101436.85
2019-05-18T12:35:09.061Z,101431.09
2019-05-18T12:39:11.215Z,101429.16
2019-05-18T12:43:13.353Z,101419.87
2019-05-18T12:47:16.624Z,101419.87
2019-05-18T12:51:18.731Z,101423.64
2019-05-18T12:55:21.446Z,101425.98
2019-05-18T12:59:23.573Z,101424.95
2019-05-18T13:03:25.692Z,101413.63
2019-05-18T13:07:27.824Z,101399.38
2019-05-18T13:11:29.743Z,101399.38
2019-05-18T13:15:31.574Z,101407.45
2019-05-18T13:19:33.421Z,101409.03
2019-05-18T13:23:35.258Z,101401.88
2019-05-18T13:27:39.833Z,101408.41
2019-05-18T13:31:40.946Z,101400.02
2019-05-18T13:35:45.522Z,101395.33
2019-05-18T13:39:47.044Z,101397.78
2019-05-18T13:43:50.766Z,101384.40
2019-05-18T13:47:52.829Z,101371.27
2019-05-18T13:51:54.929Z,101371.27
2019-05-18T13:55:57.074Z,101378.09
2019-05-18T14:00:00.026Z,101361.51
2019-05-18T14:04:02.259Z,101361.51
2019-05-18T14:08:04.463Z,101370.02
2019-05-18T14:12:06.567Z,101363.08
2019-05-18T14:16:09.866Z,101365.39
2019-05-18T14:20:13.664Z,101359.34
2019-05-18T14:24:15.739Z,101361.33
2019-05-18T14:28:17.849Z,101349.10
2019-05-18T14:32:20.099Z,101353.59
2019-05-18T14:36:22.133Z,101354.53
2019-05-18T14:40:24.267Z,101354.53
2019-05-18T14:44:26.297Z,101350.17
2019-05-18T14:48:28.618Z,101345.31
2019-05-18T14:52:30.825Z,101345.52
2019-05-18T14:56:35.330Z,101340.78
2019-05-18T15:00:37.259Z,101342.10
2019-05-18T15:04:39.129Z,101340.05
2019-05-18T15:08:41.962Z,101342.16
2019-05-18T15:12:44.222Z,101330.88
2019-05-18T15:16:46.473Z,101324.85
2019-05-18T15:20:48.594Z,101323.43
2019-05-18T15:24:50.764Z,101320.04
2019-05-18T15:28:52.788Z,101322.14
2019-05-18T15:32:55.010Z,101321.16
2019-05-18T15:36:58.219Z,101320.12
2019-05-18T15:41:00.458Z,101309.41
2019-05-18T15:45:02.729Z,101305.74
2019-05-18T15:49:06.128Z,101309.69
2019-05-18T15:53:08.249Z,101295.95
2019-05-18T15:57:10.393Z,101280.87
2019-05-18T16:01:12.757Z,101284.02
2019-05-18T16:05:16.378Z,101285.14
2019-05-18T16:09:18.543Z,101282.73
2019-05-18T16:13:20.792Z,101271.30
2019-05-18T16:17:36.980Z,101271.48
2019-05-18T16:21:27.053Z,101269.61
2019-05-18T16:25:29.413Z,101261.47
2019-05-18T16:29:31.619Z,101258.16
2019-05-18T16:33:33.827Z,101258.10
2019-05-18T16:37:35.996Z,101246.83
2019-05-18T16:41:38.028Z,101247.47
2019-05-18T16:45:40.123Z,101245.14
2019-05-18T16:49:42.478Z,101242.06
2019-05-18T16:53:49.463Z,101244.31
2019-05-18T16:57:49.504Z,101246.06
2019-05-18T17:01:51.518Z,101243.55
2019-05-18T17:05:53.746Z,101240.79
2019-05-18T17:09:55.875Z,101244.76
2019-05-18T17:13:57.978Z,101241.16
2019-05-18T17:18:00.247Z,101244.84
2019-05-18T17:22:02.386Z,101247.16
2019-05-18T17:26:04.555Z,101245.70
2019-05-18T17:30:07.518Z,101242.66
2019-05-18T17:34:09.724Z,101246.23
2019-05-18T17:38:11.817Z,101244.14
2019-05-18T17:42:14.021Z,101238.55
2019-05-18T17:46:16.193Z,101239.30
2019-05-18T17:50:19.828Z,101244.45
2019-05-18T17:54:21.940Z,101248.20
2019-05-18T17:58:24.101Z,101248.26
2019-05-18T18:02:26.209Z,101237.22
2019-05-18T18:06:28.459Z,101243.06
2019-05-18T18:10:30.566Z,101238.73
2019-05-18T18:14:32.709Z,101237.30
2019-05-18T18:18:35.106Z,101233.01
2019-05-18T18:22:37.449Z,101233.47
2019-05-18T18:26:39.592Z,101232.70
2019-05-18T18:30:41.788Z,101230.60
2019-05-18T18:34:47.755Z,101230.02
2019-05-18T18:38:51.561Z,101236.09
2019-05-18T18:42:55.041Z,101236.03
2019-05-18T18:46:58.344Z,101234.81
2019-05-18T18:51:03.986Z,101228.00
2019-05-18T18:55:06.886Z,101232.06
2019-05-18T18:59:20.656Z,101238.16
2019-05-18T19:03:22.901Z,101232.14
2019-05-18T19:07:24.952Z,101235.47
2019-05-18T19:11:29.687Z,101233.41
2019-05-18T19:15:31.258Z,101241.09
2019-05-18T19:19:34.322Z,101240.67
2019-05-18T19:23:36.315Z,101236.62
2019-05-18T19:27:54.095Z,101236.83
2019-05-18T19:31:44.981Z,101232.85
2019-05-18T19:35:47.197Z,101231.18
2019-05-18T19:39:49.707Z,101232.96
2019-05-18T19:43:52.500Z,101229.64
2019-05-18T19:47:54.621Z,101222.23
2019-05-18T19:51:57.062Z,101226.15
2019-05-18T19:55:59.160Z,101230.80
2019-05-18T20:00:01.341Z,101230.78
2019-05-18T20:04:03.839Z,101234.89
2019-05-18T20:08:06.126Z,101229.72
2019-05-18T20:12:08.202Z,101226.17
2019-05-18T20:16:10.206Z,101225.06
2019-05-18T20:20:12.547Z,101229.81
2019-05-18T20:24:14.671Z,101234.09
2019-05-18T20:28:23.871Z,101231.47
2019-05-18T20:32:20.594Z,101239.41
2019-05-18T20:36:22.689Z,101243.08
2019-05-18T20:40:24.874Z,101245.06
2019-05-18T20:44:26.970Z,101249.45
2019-05-18T20:48:29.025Z,101251.90
2019-05-18T20:52:31.236Z,101256.27
2019-05-18T20:56:33.437Z,101262.47
2019-05-18T21:00:38.328Z,101261.03
2019-05-18T21:04:39.440Z,101257.37
2019-05-18T21:08:41.556Z,101252.86
2019-05-18T21:12:43.701Z,101252.48
2019-05-18T21:16:45.930Z,101252.33
2019-05-18T21:20:48.427Z,101255.33
2019-05-18T21:24:50.485Z,101257.58
2019-05-18T21:28:57.598Z,101251.70
2019-05-18T21:32:56.607Z,101243.42
2019-05-18T21:36:58.822Z,101246.53
2019-05-18T21:41:00.857Z,101250.91
2019-05-18T21:45:02.986Z,101247.52
2019-05-18T21:49:05.297Z,101249.50
2019-05-18T21:53:08.792Z,101242.69
2019-05-18T21:57:10.896Z,101243.53
2019-05-18T22:01:13.163Z,101239.82
2019-05-18T22:05:15.331Z,101238.09
2019-05-18T22:09:17.457Z,101243.87
2019-05-18T22:13:19.712Z,101244.50
2019-05-18T22:17:21.862Z,101246.81
2019-05-18T22:21:23.876Z,101247.47
2019-05-18T22:25:26.002Z,101247.46
2019-05-18T22:29:28.004Z,101250.34
2019-05-18T22:33:30.127Z,101244.98
2019-05-18T22:37:32.449Z,101251.73
2019-05-18T22:41:34.600Z,101256.38
2019-05-18T22:45:36.826Z,101248.88
2019-05-18T22:49:38.853Z,101240.37
2019-05-18T22:53:41.478Z,101239.64
2019-05-18T22:57:43.658Z,101246.22
2019-05-18T23:01:45.657Z,101247.08
2019-05-18T23:05:47.795Z,101248.47
2019-05-18T23:09:50.012Z,101241.89
2019-05-18T23:13:52.115Z,101241.89
2019-05-18T23:17:54.176Z,101234.42
2019-05-18T23:21:56.268Z,101231.78
2019-05-18T23:25:58.364Z,101222.37
2019-05-18T23:30:00.434Z,101218.38
2019-05-18T23:34:03.823Z,101213.27
2019-05-18T23:38:05.965Z,101212.09
2019-05-18T23:42:07.957Z,101209.38
2019-05-18T23:46:10.081Z,101206.51
2019-05-18T23:50:12.502Z,101196.59
2019-05-18T23:54:16.244Z,101185.80
2019-05-18T23:58:18.123Z,101182.81
